Weather History for Fort Rucker / Ozark, AL

Change the Weather History Date:

Tuesday, January 28, 2014

  Actual Average (KOZR) Record (KOZR)
Temperature  
Mean Temperature 34 °F -  
Max Temperature 43 °F 57 °F 75 °F (2013)
Min Temperature 25 °F 38 °F 24 °F (2003)
Degree Days  
Heating Degree Days 30    
Moisture  
Dew Point 25 °F    
Average Humidity 79    
Maximum Humidity 93    
Minimum Humidity 34    
Precipitation  
Precipitation 0.51 in - - ()
Sea Level Pressure  
Sea Level Pressure 30.14 in    
Wind  
Wind Speed 10 mph (North)    
Max Wind Speed 14 mph    
Max Gust Speed 22 mph    
Visibility 7 miles    
Events Rain , Snow    
Averages and records for this station are not official NWS values.
T = Trace of Precipitation, MM = Missing Value Source: NWS Daily Summary

Daily Weather History Graph

Daily Weather History Graph

Search for Another Location

Airport:

Trip Planner

Search our weather history database for the weather conditions in past years. The results will help you decide how hot, cold, wet, or windy it might be!

Date:

Astronomy

Jan. 28, 2014 Rise Set
Actual Time 6:37 AM CST 5:14 PM CST
Civil Twilight 6:11 AM CST 5:39 PM CST
Nautical Twilight 5:42 AM CST 6:08 PM CST
Astronomical Twilight 5:13 AM CST 6:37 PM CST
Moon 4:15 AM CST (1/28) 3:05 PM CST (1/28)
Length of Visible Light 11h 27m
Length of Day
10h 36m
Waning Crescent, 7% of the Moon is Illuminated
Jan 28
Waning Crescent
Jan 30
New
Feb 6
First Quarter
Feb 14
Full
Feb 22
Last Quarter

Hourly Weather History & Observations

Time (CST) Temp. Windchill Dew Point Humidity Pressure Visibility Wind Dir Wind Speed Gust Speed Precip Events Conditions
12:53 AM 43.0 °F 37.7 °F 24.1 °F 47% 30.03 in 10.0 mi North 9.2 mph - N/A   Overcast
1:34 AM 41.0 °F 33.9 °F 21.2 °F 45% 30.06 in 10.0 mi North 12.7 mph 17.3 mph N/A   Overcast
1:53 AM 41.0 °F 35.8 °F 19.9 °F 43% 30.04 in 10.0 mi North 8.1 mph - N/A   Overcast
2:53 AM 39.0 °F 32.3 °F 17.1 °F 41% 30.04 in 10.0 mi North 10.4 mph - N/A   Overcast
3:21 AM 39.2 °F 33.0 °F 17.6 °F 42% 30.05 in 10.0 mi North 9.2 mph - N/A   Overcast
3:53 AM 37.9 °F 30.5 °F 16.0 °F 41% 30.04 in 10.0 mi North 11.5 mph 18.4 mph N/A   Overcast
4:53 AM 37.0 °F 29.8 °F 15.1 °F 41% 30.06 in 10.0 mi North 10.4 mph - N/A   Overcast
5:53 AM 37.0 °F 30.4 °F 15.1 °F 41% 30.07 in 10.0 mi North 9.2 mph - N/A   Overcast
6:53 AM 36.0 °F 28.5 °F 10.9 °F 36% 30.11 in 10.0 mi North 10.4 mph - N/A   Overcast
7:53 AM 36.0 °F 27.5 °F 10.9 °F 36% 30.13 in 10.0 mi North 12.7 mph 18.4 mph N/A   Overcast
8:53 AM 36.0 °F 28.0 °F 10.0 °F 34% 30.12 in 10.0 mi North 11.5 mph - N/A   Overcast
9:53 AM 35.1 °F 27.4 °F 10.9 °F 37% 30.18 in 10.0 mi NW 10.4 mph - N/A   Overcast
10:53 AM 36.0 °F 28.0 °F 10.9 °F 36% 30.16 in 10.0 mi North 11.5 mph - 0.00 in   Overcast
11:53 AM 33.1 °F 24.4 °F 19.9 °F 59% 30.12 in 10.0 mi North 11.5 mph 17.3 mph 0.00 in Rain Light Rain
12:53 PM 30.9 °F 22.2 °F 24.1 °F 76% 30.11 in 8.0 mi North 10.4 mph - 0.02 in Rain Light Freezing Rain
1:48 PM 30.2 °F 21.3 °F 28.4 °F 93% 30.11 in 8.0 mi North 10.4 mph - 0.01 in Rain Light Freezing Rain
1:53 PM 30.9 °F 22.2 °F 27.0 °F 85% 30.10 in 10.0 mi North 10.4 mph - 0.01 in Rain Light Freezing Rain
2:10 PM 30.2 °F 21.9 °F 28.4 °F 93% 30.10 in 8.0 mi North 9.2 mph - 0.01 in Rain Light Freezing Rain
2:53 PM 30.9 °F 22.8 °F 28.0 °F 89% 30.09 in 4.0 mi North 9.2 mph - 0.04 in Rain Light Freezing Rain
2:58 PM 30.2 °F 20.2 °F 28.4 °F 93% 30.10 in 4.0 mi North 12.7 mph - 0.01 in Rain Light Freezing Rain
3:16 PM 30.2 °F 22.6 °F 28.4 °F 93% 30.11 in 5.0 mi North 8.1 mph - 0.03 in Rain Light Freezing Rain
3:23 PM 30.2 °F 21.3 °F 28.4 °F 93% 30.10 in 4.0 mi North 10.4 mph - 0.03 in Rain Light Freezing Rain
3:32 PM 30.2 °F 21.3 °F 28.4 °F 93% 30.10 in 4.0 mi North 10.4 mph - 0.05 in   Overcast
3:39 PM 30.2 °F 21.9 °F 28.4 °F 93% 30.11 in 5.0 mi North 9.2 mph - 0.05 in Rain Light Freezing Rain
3:53 PM 30.9 °F 22.8 °F 28.9 °F 92% 30.10 in 5.0 mi North 9.2 mph - 0.06 in Rain Light Freezing Rain
4:08 PM 30.2 °F 21.3 °F 28.4 °F 93% 30.11 in 5.0 mi North 10.4 mph - 0.02 in Rain Light Freezing Rain
4:31 PM 32.0 °F 24.2 °F 28.4 °F 87% 30.12 in 4.0 mi North 9.2 mph - 0.04 in Rain Light Freezing Rain
4:43 PM 32.0 °F 25.6 °F 30.2 °F 93% 30.13 in 2.5 mi Variable 6.9 mph - 0.06 in Rain Light Freezing Rain
4:53 PM 32.0 °F 23.0 °F 30.0 °F 92% 30.14 in 2.5 mi North 11.5 mph - 0.09 in Rain Light Freezing Rain
4:59 PM 32.0 °F 23.6 °F 28.4 °F 87% 30.15 in 4.0 mi North 10.4 mph - 0.01 in   Overcast
5:10 PM 32.0 °F 23.6 °F 30.2 °F 93% 30.14 in 6.0 mi North 10.4 mph - 0.02 in   Overcast
5:30 PM 32.0 °F 26.4 °F 30.2 °F 93% 30.13 in 9.0 mi NNW 5.8 mph - 0.05 in   Overcast
5:40 PM 32.0 °F 24.8 °F 30.2 °F 93% 30.14 in 6.0 mi NNW 8.1 mph - 0.06 in   Overcast
5:53 PM 32.0 °F 23.0 °F 30.0 °F 92% 30.13 in 8.0 mi North 11.5 mph - 0.07 in   Overcast
6:01 PM 32.0 °F 24.8 °F 30.2 °F 93% 30.14 in 6.0 mi North 8.1 mph - 0.01 in   Overcast
6:08 PM 32.0 °F 25.6 °F 30.2 °F 93% 30.14 in 6.0 mi North 6.9 mph - 0.01 in   Overcast
6:44 PM 32.0 °F 26.4 °F 30.2 °F 93% 30.15 in 7.0 mi North 5.8 mph - 0.06 in Rain Light Freezing Rain
6:47 PM 32.0 °F 26.4 °F 30.2 °F 93% 30.15 in 6.0 mi NNW 5.8 mph - 0.07 in Rain Light Freezing Rain
6:53 PM 32.0 °F 24.2 °F 30.0 °F 92% 30.15 in 6.0 mi NNW 9.2 mph - 0.08 in Rain Light Freezing Rain
7:02 PM 32.0 °F 23.6 °F 30.2 °F 93% 30.16 in 7.0 mi NNW 10.4 mph - 0.00 in Rain Light Freezing Rain
7:09 PM 32.0 °F 24.2 °F 30.2 °F 93% 30.16 in 5.0 mi NNW 9.2 mph - 0.01 in Rain Light Freezing Rain
7:24 PM 32.0 °F 24.8 °F 30.2 °F 93% 30.16 in 6.0 mi NNW 8.1 mph - 0.02 in Rain Light Freezing Rain
7:53 PM 30.9 °F 20.7 °F 28.9 °F 92% 30.17 in 6.0 mi NNW 13.8 mph - 0.06 in Rain Light Freezing Rain
8:00 PM 30.2 °F 21.3 °F 28.4 °F 93% 30.19 in 5.0 mi NW 10.4 mph - 0.01 in Rain Light Freezing Rain
8:18 PM 30.2 °F 20.2 °F 28.4 °F 93% 30.20 in 5.0 mi NNW 12.7 mph 20.7 mph 0.02 in Rain Light Freezing Rain
8:26 PM 30.2 °F 20.8 °F 28.4 °F 93% 30.21 in 5.0 mi North 11.5 mph - 0.03 in Rain Light Freezing Rain
8:29 PM 30.2 °F 21.9 °F 28.4 °F 93% 30.21 in 4.0 mi NNW 9.2 mph - 0.03 in Rain Light Freezing Rain
8:36 PM 30.2 °F 19.8 °F 28.4 °F 93% 30.27 in 3.0 mi NNW 13.8 mph 20.7 mph 0.03 in Rain Light Freezing Rain
8:45 PM 30.2 °F 21.3 °F 26.6 °F 86% 30.30 in 3.0 mi North 10.4 mph 20.7 mph 0.04 in Rain Light Freezing Rain
8:53 PM 30.0 °F 20.5 °F 28.0 °F 92% 30.25 in 3.0 mi North 11.5 mph - 0.04 in   Overcast
9:15 PM 28.4 °F 19.7 °F 26.6 °F 93% 30.18 in 6.0 mi NNW 9.2 mph 21.9 mph 0.02 in Rain Light Freezing Rain
9:53 PM 27.0 °F 16.1 °F 24.1 °F 89% 30.16 in 9.0 mi NNW 12.7 mph - 0.03 in Rain Light Freezing Rain
9:57 PM 26.6 °F 15.2 °F 24.8 °F 93% 30.17 in 10.0 mi NNW 13.8 mph 20.7 mph 0.00 in   Overcast
10:44 PM 26.6 °F 16.2 °F 23.0 °F 86% 30.30 in 10.0 mi NNW 11.5 mph - 0.01 in   Overcast
10:53 PM 26.1 °F 15.6 °F 23.0 °F 88% 30.25 in 9.0 mi NNW 11.5 mph - 0.01 in   Overcast
11:09 PM 26.6 °F 16.2 °F 23.0 °F 86% 30.21 in 5.0 mi NNW 11.5 mph - 0.00 in Snow Light Snow
11:35 PM 26.6 °F 15.7 °F 23.0 °F 86% 30.17 in 10.0 mi NNW 12.7 mph 20.7 mph 0.00 in   Overcast
11:53 PM 25.0 °F 14.8 °F 21.9 °F 88% 30.17 in 10.0 mi NNW 10.4 mph - 0.00 in   Overcast